sensor_id;sensor_type;location;lat;lon;timestamp;pressure;altitude;pressure_sealevel;temperature;humidity
25610;BME280;13479;49.044;8.716;2023-04-05T04:02:01;99283.25;;;-1.57;64.96
25610;BME280;13479;49.044;8.716;2023-04-05T04:04:26;99282.53;;;-1.62;64.76
25610;BME280;13479;49.044;8.716;2023-04-05T04:06:52;99280.09;;;-1.66;65.34
25610;BME280;13479;49.044;8.716;2023-04-05T04:09:18;99273.66;;;-1.54;65.67
25610;BME280;13479;49.044;8.716;2023-04-05T04:11:43;99271.72;;;-1.49;66.16
25610;BME280;13479;49.044;8.716;2023-04-05T04:14:08;99284.81;;;-1.51;65.89
25610;BME280;13479;49.044;8.716;2023-04-05T04:16:33;99289.16;;;-1.51;66.42
25610;BME280;13479;49.044;8.716;2023-04-05T04:18:59;99282.38;;;-1.56;66.67
25610;BME280;13479;49.044;8.716;2023-04-05T04:21:24;99292.97;;;-1.62;66.69
25610;BME280;13479;49.044;8.716;2023-04-05T04:23:50;99293.22;;;-1.69;66.82
25610;BME280;13479;49.044;8.716;2023-04-05T04:26:16;99300.16;;;-1.70;67.20
25610;BME280;13479;49.044;8.716;2023-04-05T04:28:53;99298.47;;;-1.71;66.87
25610;BME280;13479;49.044;8.716;2023-04-05T04:31:18;99299.31;;;-1.71;67.07
25610;BME280;13479;49.044;8.716;2023-04-05T04:33:47;99311.47;;;-1.71;67.31
25610;BME280;13479;49.044;8.716;2023-04-05T04:36:13;99303.13;;;-1.81;67.92
25610;BME280;13479;49.044;8.716;2023-04-05T04:38:41;99312.88;;;-1.89;67.63
25610;BME280;13479;49.044;8.716;2023-04-05T04:41:08;99307.47;;;-1.81;68.23
25610;BME280;13479;49.044;8.716;2023-04-05T04:43:34;99316.00;;;-1.76;67.71
25610;BME280;13479;49.044;8.716;2023-04-05T04:46:08;99330.06;;;-1.55;67.47
25610;BME280;13479;49.044;8.716;2023-04-05T04:48:38;99343.97;;;-1.56;67.69
25610;BME280;13479;49.044;8.716;2023-04-05T04:51:06;99332.91;;;-1.63;68.05
25610;BME280;13479;49.044;8.716;2023-04-05T04:53:31;99328.13;;;-1.77;68.26
25610;BME280;13479;49.044;8.716;2023-04-05T04:55:56;99314.56;;;-1.87;68.81
25610;BME280;13479;49.044;8.716;2023-04-05T04:58:22;99320.56;;;-1.84;69.23
25610;BME280;13479;49.044;8.716;2023-04-05T05:00:47;99339.78;;;-1.89;69.43
25610;BME280;13479;49.044;8.716;2023-04-05T05:03:12;99342.53;;;-1.93;70.04
25610;BME280;13479;49.044;8.716;2023-04-05T05:05:47;99356.28;;;-1.90;69.81
25610;BME280;13479;49.044;8.716;2023-04-05T05:08:12;99359.72;;;-1.88;69.76
25610;BME280;13479;49.044;8.716;2023-04-05T05:10:38;99365.69;;;-1.86;69.25
25610;BME280;13479;49.044;8.716;2023-04-05T05:13:04;99377.56;;;-1.75;69.01
25610;BME280;13479;49.044;8.716;2023-04-05T05:15:29;99398.00;;;-1.63;68.63
25610;BME280;13479;49.044;8.716;2023-04-05T05:17:55;99428.28;;;-1.59;67.96
25610;BME280;13479;49.044;8.716;2023-04-05T05:20:20;99438.63;;;-1.57;68.10
25610;BME280;13479;49.044;8.716;2023-04-05T05:22:46;99441.91;;;-1.50;68.25
25610;BME280;13479;49.044;8.716;2023-04-05T05:25:12;99444.28;;;-1.14;67.97
25610;BME280;13479;49.044;8.716;2023-04-05T05:27:38;99465.84;;;-1.09;67.63
25610;BME280;13479;49.044;8.716;2023-04-05T05:30:04;99491.84;;;-0.79;67.02
25610;BME280;13479;49.044;8.716;2023-04-05T05:32:29;99533.34;;;-0.73;66.32
25610;BME280;13479;49.044;8.716;2023-04-05T05:34:55;99563.00;;;-0.20;66.39
25610;BME280;13479;49.044;8.716;2023-04-05T05:37:32;99608.50;;;0.74;64.83
25610;BME280;13479;49.044;8.716;2023-04-05T05:39:59;99673.25;;;1.84;63.46
25610;BME280;13479;49.044;8.716;2023-04-05T05:42:24;99736.94;;;2.93;60.79
25610;BME280;13479;49.044;8.716;2023-04-05T05:44:51;99719.03;;;3.81;58.13
25610;BME280;13479;49.044;8.716;2023-04-05T05:47:16;99695.03;;;4.78;55.58
25610;BME280;13479;49.044;8.716;2023-04-05T05:49:42;99689.19;;;6.04;52.63
25610;BME280;13479;49.044;8.716;2023-04-05T05:52:07;99680.78;;;7.18;48.12
25610;BME280;13479;49.044;8.716;2023-04-05T05:54:32;99672.69;;;8.32;45.72
25610;BME280;13479;49.044;8.716;2023-04-05T05:56:57;99666.41;;;9.38;44.26
25610;BME280;13479;49.044;8.716;2023-04-05T05:59:23;99667.88;;;10.28;41.64
25610;BME280;13479;49.044;8.716;2023-04-05T06:01:48;99680.91;;;11.25;39.51
25610;BME280;13479;49.044;8.716;2023-04-05T06:04:15;99666.19;;;12.10;37.37
25610;BME280;13479;49.044;8.716;2023-04-05T06:06:41;99664.59;;;13.04;35.26
25610;BME280;13479;49.044;8.716;2023-04-05T06:09:10;99670.81;;;13.96;34.02
25610;BME280;13479;49.044;8.716;2023-04-05T06:11:36;99673.63;;;14.82;32.71
25610;BME280;13479;49.044;8.716;2023-04-05T06:14:01;99675.44;;;15.67;30.11
25610;BME280;13479;49.044;8.716;2023-04-05T06:16:26;99669.47;;;16.01;28.78
25610;BME280;13479;49.044;8.716;2023-04-05T06:18:53;99662.34;;;16.28;27.42
25610;BME280;13479;49.044;8.716;2023-04-05T06:21:20;99673.81;;;16.57;26.76
25610;BME280;13479;49.044;8.716;2023-04-05T06:23:46;99669.84;;;16.87;26.53
25610;BME280;13479;49.044;8.716;2023-04-05T06:26:16;99667.00;;;17.41;25.33
25610;BME280;13479;49.044;8.716;2023-04-05T06:28:42;99667.47;;;17.80;25.57
25610;BME280;13479;49.044;8.716;2023-04-05T06:31:08;99662.41;;;18.61;24.68
25610;BME280;13479;49.044;8.716;2023-04-05T06:33:33;99661.97;;;19.22;23.34
25610;BME280;13479;49.044;8.716;2023-04-05T06:35:58;99658.22;;;19.31;23.34
25610;BME280;13479;49.044;8.716;2023-04-05T06:38:23;99650.06;;;19.56;23.35
25610;BME280;13479;49.044;8.716;2023-04-05T06:40:49;99646.94;;;20.30;22.77
25610;BME280;13479;49.044;8.716;2023-04-05T06:43:14;99642.91;;;20.88;21.66
25610;BME280;13479;49.044;8.716;2023-04-05T06:45:39;99646.00;;;21.59;20.54
25610;BME280;13479;49.044;8.716;2023-04-05T06:48:05;99632.81;;;21.86;20.46
25610;BME280;13479;49.044;8.716;2023-04-05T06:50:30;99638.22;;;21.56;19.75
25610;BME280;13479;49.044;8.716;2023-04-05T06:52:56;99626.34;;;20.52;20.23
25610;BME280;13479;49.044;8.716;2023-04-05T06:55:21;99637.69;;;20.48;20.29
25610;BME280;13479;49.044;8.716;2023-04-05T06:57:46;99625.44;;;20.98;20.55
25610;BME280;13479;49.044;8.716;2023-04-05T07:00:12;99628.91;;;20.69;20.49
25610;BME280;13479;49.044;8.716;2023-04-05T07:02:38;99637.19;;;20.67;20.23
25610;BME280;13479;49.044;8.716;2023-04-05T07:05:04;99623.84;;;21.19;20.29
25610;BME280;13479;49.044;8.716;2023-04-05T07:07:37;99623.00;;;21.85;19.74
25610;BME280;13479;49.044;8.716;2023-04-05T07:10:04;99627.69;;;22.92;18.92
25610;BME280;13479;49.044;8.716;2023-04-05T07:12:29;99615.59;;;23.71;18.43
25610;BME280;13479;49.044;8.716;2023-04-05T07:14:54;99613.22;;;24.30;17.63
25610;BME280;13479;49.044;8.716;2023-04-05T07:17:20;99611.13;;;24.73;16.68
25610;BME280;13479;49.044;8.716;2023-04-05T07:19:45;99613.63;;;24.41;17.30
25610;BME280;13479;49.044;8.716;2023-04-05T07:22:11;99611.75;;;24.61;17.11
25610;BME280;13479;49.044;8.716;2023-04-05T07:24:36;99616.97;;;24.29;16.92
25610;BME280;13479;49.044;8.716;2023-04-05T07:27:01;99613.22;;;24.57;17.26
25610;BME280;13479;49.044;8.716;2023-04-05T07:29:27;99614.06;;;24.91;16.66
25610;BME280;13479;49.044;8.716;2023-04-05T07:31:52;99617.78;;;25.04;15.92
25610;BME280;13479;49.044;8.716;2023-04-05T07:34:17;99612.66;;;23.66;16.98
25610;BME280;13479;49.044;8.716;2023-04-05T07:36:42;99627.63;;;22.78;17.74
25610;BME280;13479;49.044;8.716;2023-04-05T07:39:08;99610.16;;;22.31;18.34
25610;BME280;13479;49.044;8.716;2023-04-05T07:41:33;99617.41;;;23.16;17.88
25610;BME280;13479;49.044;8.716;2023-04-05T07:44:02;99606.53;;;24.53;17.20
25610;BME280;13479;49.044;8.716;2023-04-05T07:46:27;99623.44;;;24.89;16.79
25610;BME280;13479;49.044;8.716;2023-04-05T07:48:54;99622.00;;;25.58;16.02
25610;BME280;13479;49.044;8.716;2023-04-05T07:51:19;99617.09;;;26.45;15.39
25610;BME280;13479;49.044;8.716;2023-04-05T07:53:45;99625.00;;;27.16;14.95
25610;BME280;13479;49.044;8.716;2023-04-05T07:56:10;99621.38;;;28.20;14.53
25610;BME280;13479;49.044;8.716;2023-04-05T07:58:37;99617.16;;;28.95;13.45
25610;BME280;13479;49.044;8.716;2023-04-05T08:01:07;99617.88;;;29.84;13.26
25610;BME280;13479;49.044;8.716;2023-04-05T08:03:34;99616.16;;;30.41;12.74
25610;BME280;13479;49.044;8.716;2023-04-05T08:06:13;99620.63;;;30.47;12.10
25610;BME280;13479;49.044;8.716;2023-04-05T08:08:39;99615.13;;;29.84;12.62
25610;BME280;13479;49.044;8.716;2023-04-05T08:11:05;99621.41;;;29.97;12.74
25610;BME280;13479;49.044;8.716;2023-04-05T08:13:31;99627.75;;;30.31;12.56
25610;BME280;13479;49.044;8.716;2023-04-05T08:15:58;99619.22;;;30.28;12.40
25610;BME280;13479;49.044;8.716;2023-04-05T08:18:25;99627.59;;;30.72;12.31
25610;BME280;13479;49.044;8.716;2023-04-05T08:20:54;99630.00;;;31.08;12.20
25610;BME280;13479;49.044;8.716;2023-04-05T08:23:19;99629.50;;;30.89;12.00
25610;BME280;13479;49.044;8.716;2023-04-05T08:25:45;99633.06;;;31.29;12.00
25610;BME280;13479;49.044;8.716;2023-04-05T08:28:11;99632.19;;;31.23;11.78
25610;BME280;13479;49.044;8.716;2023-04-05T08:30:37;99628.41;;;31.29;11.55
25610;BME280;13479;49.044;8.716;2023-04-05T08:33:03;99624.00;;;31.28;11.69
25610;BME280;13479;49.044;8.716;2023-04-05T08:35:29;99625.47;;;30.57;12.20
25610;BME280;13479;49.044;8.716;2023-04-05T08:37:54;99626.81;;;30.94;11.77
25610;BME280;13479;49.044;8.716;2023-04-05T08:40:20;99629.00;;;31.31;11.71
25610;BME280;13479;49.044;8.716;2023-04-05T08:42:51;99616.63;;;30.72;11.93
25610;BME280;13479;49.044;8.716;2023-04-05T08:45:21;99622.72;;;30.96;11.63
25610;BME280;13479;49.044;8.716;2023-04-05T08:47:51;99617.06;;;31.42;11.57
25610;BME280;13479;49.044;8.716;2023-04-05T08:50:17;99627.38;;;31.80;10.91
25610;BME280;13479;49.044;8.716;2023-04-05T08:52:45;99623.13;;;30.66;12.13
25610;BME280;13479;49.044;8.716;2023-04-05T08:55:13;99628.47;;;30.56;11.68
25610;BME280;13479;49.044;8.716;2023-04-05T08:57:49;99624.38;;;29.95;12.13
25610;BME280;13479;49.044;8.716;2023-04-05T09:00:18;99631.84;;;29.42;12.70
25610;BME280;13479;49.044;8.716;2023-04-05T09:02:47;99626.63;;;29.69;12.73
25610;BME280;13479;49.044;8.716;2023-04-05T09:05:15;99625.00;;;30.14;12.69
25610;BME280;13479;49.044;8.716;2023-04-05T09:07:41;99623.53;;;30.58;12.38
25610;BME280;13479;49.044;8.716;2023-04-05T09:10:08;99623.94;;;30.49;12.28
25610;BME280;13479;49.044;8.716;2023-04-05T09:12:34;99627.84;;;30.19;12.01
25610;BME280;13479;49.044;8.716;2023-04-05T09:15:00;99622.22;;;30.43;11.61
25610;BME280;13479;49.044;8.716;2023-04-05T09:17:27;99620.78;;;30.24;11.57
25610;BME280;13479;49.044;8.716;2023-04-05T09:19:53;99616.31;;;30.17;11.44
25610;BME280;13479;49.044;8.716;2023-04-05T09:22:18;99615.03;;;29.79;12.00
25610;BME280;13479;49.044;8.716;2023-04-05T09:24:44;99615.13;;;30.47;11.64
25610;BME280;13479;49.044;8.716;2023-04-05T09:27:12;99605.84;;;30.14;10.83
25610;BME280;13479;49.044;8.716;2023-04-05T09:29:40;99611.84;;;29.53;11.45
25610;BME280;13479;49.044;8.716;2023-04-05T09:32:07;99608.72;;;28.97;11.81
25610;BME280;13479;49.044;8.716;2023-04-05T09:34:34;99610.03;;;28.94;12.60
25610;BME280;13479;49.044;8.716;2023-04-05T09:37:15;99607.81;;;29.44;11.80
25610;BME280;13479;49.044;8.716;2023-04-05T09:39:41;99603.56;;;29.65;11.76
25610;BME280;13479;49.044;8.716;2023-04-05T09:42:10;99599.03;;;29.71;11.54
25610;BME280;13479;49.044;8.716;2023-04-05T09:47:26;99602.78;;;29.00;12.05
25610;BME280;13479;49.044;8.716;2023-04-05T09:49:55;99603.38;;;28.90;11.83
25610;BME280;13479;49.044;8.716;2023-04-05T09:52:23;99590.91;;;28.59;12.10
25610;BME280;13479;49.044;8.716;2023-04-05T09:54:50;99591.84;;;28.64;13.04
25610;BME280;13479;49.044;8.716;2023-04-05T09:57:16;99587.00;;;28.78;12.26
25610;BME280;13479;49.044;8.716;2023-04-05T09:59:45;99576.59;;;27.79;12.65
25610;BME280;13479;49.044;8.716;2023-04-05T10:02:11;99585.88;;;28.20;12.72
25610;BME280;13479;49.044;8.716;2023-04-05T10:04:41;99577.47;;;27.91;13.09
25610;BME280;13479;49.044;8.716;2023-04-05T10:07:08;99585.81;;;27.96;12.95
25610;BME280;13479;49.044;8.716;2023-04-05T10:09:35;99578.06;;;27.13;13.25
25610;BME280;13479;49.044;8.716;2023-04-05T10:12:01;99587.03;;;26.77;13.26
25610;BME280;13479;49.044;8.716;2023-04-05T10:14:27;99577.84;;;26.78;13.35
25610;BME280;13479;49.044;8.716;2023-04-05T10:19:46;99563.47;;;26.64;13.30
25610;BME280;13479;49.044;8.716;2023-04-05T10:22:27;99563.78;;;26.56;13.25
25610;BME280;13479;49.044;8.716;2023-04-05T10:25:01;99551.16;;;26.61;13.40
25610;BME280;13479;49.044;8.716;2023-04-05T10:28:09;99556.00;;;26.59;13.18
25610;BME280;13479;49.044;8.716;2023-04-05T10:30:30;99549.38;;;25.66;14.23
25610;BME280;13479;49.044;8.716;2023-04-05T10:33:20;99556.75;;;25.13;14.67
25610;BME280;13479;49.044;8.716;2023-04-05T10:39:16;99546.00;;;24.46;14.54
25610;BME280;13479;49.044;8.716;2023-04-05T10:41:46;99537.25;;;24.50;15.20
25610;BME280;13479;49.044;8.716;2023-04-05T10:44:13;99544.16;;;24.06;15.02
25610;BME280;13479;49.044;8.716;2023-04-05T10:46:39;99531.00;;;24.10;15.00
25610;BME280;13479;49.044;8.716;2023-04-05T10:49:21;99529.13;;;23.21;15.68
25610;BME280;13479;49.044;8.716;2023-04-05T10:51:51;99528.19;;;23.49;15.78
25610;BME280;13479;49.044;8.716;2023-04-05T10:54:18;99519.38;;;23.27;15.86
25610;BME280;13479;49.044;8.716;2023-04-05T10:56:44;99522.63;;;22.10;16.34
25610;BME280;13479;49.044;8.716;2023-04-05T10:59:11;99517.13;;;21.23;17.07
25610;BME280;13479;49.044;8.716;2023-04-05T11:01:37;99511.59;;;20.50;17.73
25610;BME280;13479;49.044;8.716;2023-04-05T11:04:13;99520.50;;;20.35;17.84
25610;BME280;13479;49.044;8.716;2023-04-05T11:06:39;99508.44;;;20.31;18.54
25610;BME280;13479;49.044;8.716;2023-04-05T11:09:16;99512.91;;;20.54;18.39
25610;BME280;13479;49.044;8.716;2023-04-05T11:11:48;99505.19;;;20.51;18.63
25610;BME280;13479;49.044;8.716;2023-04-05T11:16:57;99494.84;;;20.10;18.85
25610;BME280;13479;49.044;8.716;2023-04-05T11:22:08;99474.31;;;19.62;18.88
25610;BME280;13479;49.044;8.716;2023-04-05T11:24:49;99479.75;;;18.99;19.32
25610;BME280;13479;49.044;8.716;2023-04-05T11:27:27;99474.63;;;18.08;20.56
25610;BME280;13479;49.044;8.716;2023-04-05T11:29:53;99482.50;;;17.43;21.70
25610;BME280;13479;49.044;8.716;2023-04-05T11:32:19;99474.59;;;16.82;21.57
25610;BME280;13479;49.044;8.716;2023-04-05T11:34:56;99482.13;;;16.18;22.97
25610;BME280;13479;49.044;8.716;2023-04-05T11:37:22;99472.72;;;15.87;23.94
25610;BME280;13479;49.044;8.716;2023-04-05T11:39:48;99484.19;;;15.43;24.54
25610;BME280;13479;49.044;8.716;2023-04-05T11:42:20;99481.38;;;14.99;23.89
25610;BME280;13479;49.044;8.716;2023-04-05T11:44:47;99478.41;;;14.74;24.62
25610;BME280;13479;49.044;8.716;2023-04-05T11:47:16;99472.41;;;14.15;24.05
25610;BME280;13479;49.044;8.716;2023-04-05T11:49:42;99468.25;;;13.34;24.73
25610;BME280;13479;49.044;8.716;2023-04-05T11:52:11;99463.81;;;12.93;25.99
25610;BME280;13479;49.044;8.716;2023-04-05T11:54:37;99460.69;;;12.78;27.34
25610;BME280;13479;49.044;8.716;2023-04-05T11:57:03;99472.47;;;12.76;26.10
25610;BME280;13479;49.044;8.716;2023-04-05T11:59:32;99464.47;;;12.45;27.75
25610;BME280;13479;49.044;8.716;2023-04-05T12:02:02;99468.50;;;12.29;27.71
25610;BME280;13479;49.044;8.716;2023-04-05T12:04:30;99473.13;;;12.06;28.03
25610;BME280;13479;49.044;8.716;2023-04-05T12:10:07;99469.88;;;11.16;28.92
25610;BME280;13479;49.044;8.716;2023-04-05T12:12:38;99483.44;;;11.02;29.63
25610;BME280;13479;49.044;8.716;2023-04-05T12:15:09;99477.66;;;10.85;30.53
25610;BME280;13479;49.044;8.716;2023-04-05T12:20:08;99483.44;;;11.13;30.19
25610;BME280;13479;49.044;8.716;2023-04-05T12:22:35;99482.06;;;11.30;30.29
25610;BME280;13479;49.044;8.716;2023-04-05T12:25:01;99471.97;;;11.66;29.37
25610;BME280;13479;49.044;8.716;2023-04-05T12:27:27;99463.31;;;11.64;28.34
25610;BME280;13479;49.044;8.716;2023-04-05T12:30:15;99449.34;;;11.51;30.31
25610;BME280;13479;49.044;8.716;2023-04-05T12:32:50;99450.75;;;11.55;29.79
25610;BME280;13479;49.044;8.716;2023-04-05T12:35:23;99445.00;;;11.50;30.74
25610;BME280;13479;49.044;8.716;2023-04-05T12:37:57;99428.47;;;11.46;29.88
25610;BME280;13479;49.044;8.716;2023-04-05T12:40:23;99430.53;;;11.42;29.75
25610;BME280;13479;49.044;8.716;2023-04-05T12:42:49;99425.41;;;11.18;30.59
25610;BME280;13479;49.044;8.716;2023-04-05T12:45:15;99430.13;;;11.15;30.57
25610;BME280;13479;49.044;8.716;2023-04-05T12:47:54;99427.47;;;11.15;29.99
25610;BME280;13479;49.044;8.716;2023-04-05T12:50:26;99412.75;;;11.10;30.14
25610;BME280;13479;49.044;8.716;2023-04-05T12:52:53;99401.06;;;11.13;30.61
25610;BME280;13479;49.044;8.716;2023-04-05T12:55:18;99391.44;;;11.22;30.18
25610;BME280;13479;49.044;8.716;2023-04-05T12:57:48;99393.19;;;11.11;30.28
25610;BME280;13479;49.044;8.716;2023-04-05T13:00:13;99387.22;;;10.87;30.08
25610;BME280;13479;49.044;8.716;2023-04-05T13:02:39;99381.03;;;10.97;29.19
25610;BME280;13479;49.044;8.716;2023-04-05T13:05:05;99371.72;;;11.03;29.24
25610;BME280;13479;49.044;8.716;2023-04-05T13:07:30;99356.66;;;10.92;29.21
25610;BME280;13479;49.044;8.716;2023-04-05T13:09:55;99359.94;;;11.17;29.34
25610;BME280;13479;49.044;8.716;2023-04-05T13:12:20;99354.59;;;11.50;28.18
25610;BME280;13479;49.044;8.716;2023-04-05T13:14:46;99347.50;;;11.18;29.28
25610;BME280;13479;49.044;8.716;2023-04-05T13:17:11;99331.50;;;11.29;29.03
25610;BME280;13479;49.044;8.716;2023-04-05T13:19:36;99327.59;;;11.33;29.76
25610;BME280;13479;49.044;8.716;2023-04-05T13:22:02;99332.59;;;11.48;30.30
25610;BME280;13479;49.044;8.716;2023-04-05T13:24:27;99341.09;;;11.63;29.67
25610;BME280;13479;49.044;8.716;2023-04-05T13:26:52;99331.47;;;11.71;29.71
25610;BME280;13479;49.044;8.716;2023-04-05T13:29:18;99330.16;;;11.87;29.28
25610;BME280;13479;49.044;8.716;2023-04-05T13:31:43;99322.59;;;12.23;29.76
25610;BME280;13479;49.044;8.716;2023-04-05T13:34:08;99323.78;;;11.99;29.76
25610;BME280;13479;49.044;8.716;2023-04-05T13:36:34;99315.53;;;12.02;29.72
25610;BME280;13479;49.044;8.716;2023-04-05T13:38:59;99314.13;;;11.98;28.96
25610;BME280;13479;49.044;8.716;2023-04-05T13:41:24;99306.75;;;12.12;29.97
25610;BME280;13479;49.044;8.716;2023-04-05T13:43:50;99308.56;;;12.11;29.79
25610;BME280;13479;49.044;8.716;2023-04-05T13:46:16;99306.47;;;12.15;30.00
25610;BME280;13479;49.044;8.716;2023-04-05T13:48:41;99300.03;;;12.08;29.67
25610;BME280;13479;49.044;8.716;2023-04-05T13:51:06;99300.59;;;12.11;28.56
25610;BME280;13479;49.044;8.716;2023-04-05T13:53:31;99291.84;;;11.99;28.49
25610;BME280;13479;49.044;8.716;2023-04-05T13:55:57;99293.91;;;11.96;28.61
25610;BME280;13479;49.044;8.716;2023-04-05T13:58:22;99295.78;;;12.05;28.07
25610;BME280;13479;49.044;8.716;2023-04-05T14:00:47;99290.22;;;12.08;28.56
25610;BME280;13479;49.044;8.716;2023-04-05T14:03:13;99293.28;;;12.03;28.42
25610;BME280;13479;49.044;8.716;2023-04-05T14:05:38;99280.31;;;11.89;28.23
25610;BME280;13479;49.044;8.716;2023-04-05T14:08:03;99286.31;;;11.81;28.55
25610;BME280;13479;49.044;8.716;2023-04-05T14:10:30;99275.06;;;11.78;29.07
25610;BME280;13479;49.044;8.716;2023-04-05T14:12:55;99279.56;;;11.98;28.01
25610;BME280;13479;49.044;8.716;2023-04-05T14:15:21;99279.88;;;11.84;28.02
25610;BME280;13479;49.044;8.716;2023-04-05T14:17:46;99271.09;;;11.93;28.63
25610;BME280;13479;49.044;8.716;2023-04-05T14:20:11;99267.41;;;11.84;28.53
25610;BME280;13479;49.044;8.716;2023-04-05T14:22:37;99278.34;;;11.81;27.43
25610;BME280;13479;49.044;8.716;2023-04-05T14:25:02;99280.28;;;11.79;27.97
25610;BME280;13479;49.044;8.716;2023-04-05T14:27:28;99277.84;;;11.97;27.42
25610;BME280;13479;49.044;8.716;2023-04-05T14:29:53;99268.56;;;11.92;27.82
25610;BME280;13479;49.044;8.716;2023-04-05T14:32:25;99278.44;;;11.80;28.18
25610;BME280;13479;49.044;8.716;2023-04-05T14:34:50;99269.91;;;11.76;27.89
25610;BME280;13479;49.044;8.716;2023-04-05T14:37:15;99263.81;;;11.95;28.42
25610;BME280;13479;49.044;8.716;2023-04-05T14:39:42;99269.78;;;12.09;27.28
25610;BME280;13479;49.044;8.716;2023-04-05T14:42:08;99266.13;;;12.10;27.26
25610;BME280;13479;49.044;8.716;2023-04-05T14:44:33;99274.25;;;12.08;26.94
25610;BME280;13479;49.044;8.716;2023-04-05T14:46:59;99266.13;;;12.10;28.58
25610;BME280;13479;49.044;8.716;2023-04-05T14:49:24;99271.59;;;12.08;27.73
25610;BME280;13479;49.044;8.716;2023-04-05T14:51:50;99269.13;;;11.95;27.17
25610;BME280;13479;49.044;8.716;2023-04-05T14:54:15;99269.09;;;11.85;27.64
25610;BME280;13479;49.044;8.716;2023-04-05T14:56:41;99255.94;;;11.94;28.01
25610;BME280;13479;49.044;8.716;2023-04-05T14:59:06;99267.09;;;11.78;27.56
25610;BME280;13479;49.044;8.716;2023-04-05T15:01:31;99271.75;;;11.85;26.85
25610;BME280;13479;49.044;8.716;2023-04-05T15:03:57;99270.81;;;11.96;26.59
25610;BME280;13479;49.044;8.716;2023-04-05T15:06:22;99275.50;;;12.04;26.11
25610;BME280;13479;49.044;8.716;2023-04-05T15:08:48;99272.41;;;11.78;25.91
25610;BME280;13479;49.044;8.716;2023-04-05T15:11:13;99276.25;;;11.85;26.09
25610;BME280;13479;49.044;8.716;2023-04-05T15:13:38;99273.69;;;11.83;25.23
25610;BME280;13479;49.044;8.716;2023-04-05T15:16:04;99276.16;;;11.65;25.32
25610;BME280;13479;49.044;8.716;2023-04-05T15:18:29;99277.31;;;11.72;25.67
25610;BME280;13479;49.044;8.716;2023-04-05T15:20:55;99282.91;;;11.69;25.26
25610;BME280;13479;49.044;8.716;2023-04-05T15:23:20;99272.09;;;11.61;25.33
25610;BME280;13479;49.044;8.716;2023-04-05T15:25:46;99279.09;;;11.62;25.42
25610;BME280;13479;49.044;8.716;2023-04-05T15:28:11;99277.81;;;11.35;26.13
25610;BME280;13479;49.044;8.716;2023-04-05T15:30:36;99268.22;;;11.23;26.17
25610;BME280;13479;49.044;8.716;2023-04-05T15:33:02;99261.84;;;11.25;26.84
25610;BME280;13479;49.044;8.716;2023-04-05T15:35:27;99264.34;;;11.27;27.35
25610;BME280;13479;49.044;8.716;2023-04-05T15:37:53;99253.88;;;11.25;27.43
25610;BME280;13479;49.044;8.716;2023-04-05T15:40:18;99247.53;;;11.48;28.39
25610;BME280;13479;49.044;8.716;2023-04-05T15:42:44;99250.44;;;11.44;27.15
25610;BME280;13479;49.044;8.716;2023-04-05T15:45:10;99254.38;;;11.50;26.47
25610;BME280;13479;49.044;8.716;2023-04-05T15:47:35;99243.81;;;11.60;26.37
25610;BME280;13479;49.044;8.716;2023-04-05T15:50:01;99261.03;;;11.35;26.60
25610;BME280;13479;49.044;8.716;2023-04-05T15:52:26;99257.09;;;11.29;27.01
25610;BME280;13479;49.044;8.716;2023-04-05T15:54:51;99255.97;;;11.32;26.58
25610;BME280;13479;49.044;8.716;2023-04-05T15:57:17;99257.34;;;11.26;26.38
25610;BME280;13479;49.044;8.716;2023-04-05T15:59:44;99251.06;;;11.27;26.61
25610;BME280;13479;49.044;8.716;2023-04-05T16:02:09;99246.47;;;11.29;26.64
25610;BME280;13479;49.044;8.716;2023-04-05T16:04:35;99256.19;;;11.19;26.67
25610;BME280;13479;49.044;8.716;2023-04-05T16:07:00;99251.06;;;11.06;26.65
25610;BME280;13479;49.044;8.716;2023-04-05T16:09:26;99255.53;;;11.05;27.13
25610;BME280;13479;49.044;8.716;2023-04-05T16:11:51;99239.97;;;11.22;27.52
25610;BME280;13479;49.044;8.716;2023-04-05T16:14:17;99238.34;;;11.31;27.32
25610;BME280;13479;49.044;8.716;2023-04-05T16:16:42;99252.09;;;11.15;26.79
25610;BME280;13479;49.044;8.716;2023-04-05T16:19:07;99247.38;;;10.97;26.60
25610;BME280;13479;49.044;8.716;2023-04-05T16:21:34;99249.31;;;10.95;26.85
25610;BME280;13479;49.044;8.716;2023-04-05T16:24:00;99249.81;;;10.89;27.17
25610;BME280;13479;49.044;8.716;2023-04-05T16:26:27;99246.84;;;11.03;26.82
25610;BME280;13479;49.044;8.716;2023-04-05T16:28:53;99242.97;;;11.07;26.89
25610;BME280;13479;49.044;8.716;2023-04-05T16:31:18;99238.56;;;10.96;27.10
25610;BME280;13479;49.044;8.716;2023-04-05T16:33:44;99235.81;;;10.87;27.18
25610;BME280;13479;49.044;8.716;2023-04-05T16:36:09;99225.66;;;10.92;27.84
25610;BME280;13479;49.044;8.716;2023-04-05T16:38:34;99228.38;;;11.23;27.51
25610;BME280;13479;49.044;8.716;2023-04-05T16:41:00;99232.34;;;11.07;27.55
25610;BME280;13479;49.044;8.716;2023-04-05T16:43:25;99231.38;;;11.08;27.07
25610;BME280;13479;49.044;8.716;2023-04-05T16:45:51;99227.34;;;10.93;27.17
25610;BME280;13479;49.044;8.716;2023-04-05T16:48:16;99225.84;;;11.00;27.58
25610;BME280;13479;49.044;8.716;2023-04-05T16:50:42;99232.41;;;10.96;27.27
25610;BME280;13479;49.044;8.716;2023-04-05T16:53:07;99234.41;;;10.82;27.15
25610;BME280;13479;49.044;8.716;2023-04-05T16:55:34;99235.44;;;10.70;27.79
25610;BME280;13479;49.044;8.716;2023-04-05T16:57:59;99227.00;;;10.65;27.93
25610;BME280;13479;49.044;8.716;2023-04-05T17:00:25;99230.94;;;10.49;28.46
25610;BME280;13479;49.044;8.716;2023-04-05T17:02:50;99226.03;;;10.45;28.50
25610;BME280;13479;49.044;8.716;2023-04-05T17:05:16;99220.66;;;10.77;27.89
25610;BME280;13479;49.044;8.716;2023-04-05T17:07:44;99215.06;;;11.23;27.57
25610;BME280;13479;49.044;8.716;2023-04-05T17:10:10;99221.50;;;11.51;27.59
25610;BME280;13479;49.044;8.716;2023-04-05T17:12:35;99231.31;;;11.51;27.29
25610;BME280;13479;49.044;8.716;2023-04-05T17:15:01;99233.81;;;11.42;27.46
25610;BME280;13479;49.044;8.716;2023-04-05T17:17:27;99234.66;;;11.22;27.66
25610;BME280;13479;49.044;8.716;2023-04-05T17:19:53;99234.84;;;10.88;27.91